sensor_id;sensor_type;location;lat;lon;timestamp;P1;durP1;ratioP1;P2;durP2;ratioP2
78183;SDS011;67442;44.570;18.610;2023-08-06T00:00:49;10.68;;;4.20;;
78183;SDS011;67442;44.570;18.610;2023-08-06T00:03:16;7.68;;;4.25;;
78183;SDS011;67442;44.570;18.610;2023-08-06T00:05:44;9.82;;;4.28;;
78183;SDS011;67442;44.570;18.610;2023-08-06T00:08:11;8.20;;;4.40;;
78183;SDS011;67442;44.570;18.610;2023-08-06T00:10:39;10.60;;;4.43;;
78183;SDS011;67442;44.570;18.610;2023-08-06T00:13:09;11.05;;;4.65;;
78183;SDS011;67442;44.570;18.610;2023-08-06T00:15:36;9.02;;;4.35;;
78183;SDS011;67442;44.570;18.610;2023-08-06T00:18:03;6.20;;;3.63;;
78183;SDS011;67442;44.570;18.610;2023-08-06T00:20:34;9.45;;;3.72;;
78183;SDS011;67442;44.570;18.610;2023-08-06T00:23:05;12.27;;;4.45;;
78183;SDS011;67442;44.570;18.610;2023-08-06T00:25:31;11.63;;;4.50;;
78183;SDS011;67442;44.570;18.610;2023-08-06T00:27:58;10.35;;;4.32;;
78183;SDS011;67442;44.570;18.610;2023-08-06T00:30:26;7.97;;;4.00;;
78183;SDS011;67442;44.570;18.610;2023-08-06T00:32:57;8.63;;;4.30;;
78183;SDS011;67442;44.570;18.610;2023-08-06T00:35:24;8.07;;;4.35;;
78183;SDS011;67442;44.570;18.610;2023-08-06T00:37:51;8.98;;;4.70;;
78183;SDS011;67442;44.570;18.610;2023-08-06T00:40:22;9.07;;;3.75;;
78183;SDS011;67442;44.570;18.610;2023-08-06T00:42:53;8.10;;;3.90;;
78183;SDS011;67442;44.570;18.610;2023-08-06T00:45:21;10.93;;;4.28;;
78183;SDS011;67442;44.570;18.610;2023-08-06T00:47:48;10.73;;;4.32;;
78183;SDS011;67442;44.570;18.610;2023-08-06T00:50:16;8.20;;;4.60;;
78183;SDS011;67442;44.570;18.610;2023-08-06T00:52:44;9.45;;;4.47;;
78183;SDS011;67442;44.570;18.610;2023-08-06T00:55:11;7.82;;;4.25;;
78183;SDS011;67442;44.570;18.610;2023-08-06T00:57:38;9.45;;;4.18;;
78183;SDS011;67442;44.570;18.610;2023-08-06T01:00:06;10.70;;;4.43;;
78183;SDS011;67442;44.570;18.610;2023-08-06T01:02:36;9.52;;;3.75;;
78183;SDS011;67442;44.570;18.610;2023-08-06T01:05:04;8.70;;;3.78;;
78183;SDS011;67442;44.570;18.610;2023-08-06T01:15:55;6.95;;;3.83;;
78183;SDS011;67442;44.570;18.610;2023-08-06T01:18:26;9.13;;;3.80;;
78183;SDS011;67442;44.570;18.610;2023-08-06T01:20:53;11.48;;;4.22;;
78183;SDS011;67442;44.570;18.610;2023-08-06T01:23:21;5.50;;;3.40;;
78183;SDS011;67442;44.570;18.610;2023-08-06T01:25:55;7.72;;;3.60;;
78183;SDS011;67442;44.570;18.610;2023-08-06T01:28:40;6.57;;;3.40;;
78183;SDS011;67442;44.570;18.610;2023-08-06T01:31:35;7.82;;;3.85;;
78183;SDS011;67442;44.570;18.610;2023-08-06T01:34:17;8.45;;;4.15;;
78183;SDS011;67442;44.570;18.610;2023-08-06T01:36:50;7.80;;;3.60;;
78183;SDS011;67442;44.570;18.610;2023-08-06T01:39:17;7.80;;;3.67;;
78183;SDS011;67442;44.570;18.610;2023-08-06T01:41:50;9.27;;;4.25;;
78183;SDS011;67442;44.570;18.610;2023-08-06T01:44:38;8.52;;;3.63;;
78183;SDS011;67442;44.570;18.610;2023-08-06T01:47:05;6.82;;;3.50;;
78183;SDS011;67442;44.570;18.610;2023-08-06T01:49:32;7.97;;;3.55;;
78183;SDS011;67442;44.570;18.610;2023-08-06T01:51:59;8.10;;;3.55;;
78183;SDS011;67442;44.570;18.610;2023-08-06T01:54:26;9.75;;;4.07;;
78183;SDS011;67442;44.570;18.610;2023-08-06T01:56:54;8.45;;;3.55;;
78183;SDS011;67442;44.570;18.610;2023-08-06T01:59:21;9.20;;;3.60;;
78183;SDS011;67442;44.570;18.610;2023-08-06T02:01:48;8.13;;;3.95;;
78183;SDS011;67442;44.570;18.610;2023-08-06T02:04:15;7.20;;;3.50;;
78183;SDS011;67442;44.570;18.610;2023-08-06T02:06:43;7.32;;;3.60;;
78183;SDS011;67442;44.570;18.610;2023-08-06T02:09:10;9.75;;;3.92;;
78183;SDS011;67442;44.570;18.610;2023-08-06T02:11:41;7.05;;;3.40;;
78183;SDS011;67442;44.570;18.610;2023-08-06T02:14:12;9.23;;;4.15;;
78183;SDS011;67442;44.570;18.610;2023-08-06T02:16:39;6.63;;;3.40;;
78183;SDS011;67442;44.570;18.610;2023-08-06T02:19:06;6.95;;;3.08;;
78183;SDS011;67442;44.570;18.610;2023-08-06T02:21:33;6.45;;;3.60;;
78183;SDS011;67442;44.570;18.610;2023-08-06T02:24:00;6.88;;;3.70;;
78183;SDS011;67442;44.570;18.610;2023-08-06T02:26:27;8.13;;;3.58;;
78183;SDS011;67442;44.570;18.610;2023-08-06T02:28:54;6.45;;;3.45;;
78183;SDS011;67442;44.570;18.610;2023-08-06T02:31:21;6.25;;;3.55;;
78183;SDS011;67442;44.570;18.610;2023-08-06T02:33:49;7.43;;;3.42;;
78183;SDS011;67442;44.570;18.610;2023-08-06T02:36:16;5.93;;;3.22;;
78183;SDS011;67442;44.570;18.610;2023-08-06T02:38:43;10.65;;;3.95;;
78183;SDS011;67442;44.570;18.610;2023-08-06T02:41:11;8.27;;;3.40;;
78183;SDS011;67442;44.570;18.610;2023-08-06T02:43:38;10.60;;;3.38;;
78183;SDS011;67442;44.570;18.610;2023-08-06T02:46:05;5.70;;;3.35;;
78183;SDS011;67442;44.570;18.610;2023-08-06T02:48:37;6.78;;;3.50;;
78183;SDS011;67442;44.570;18.610;2023-08-06T02:51:04;7.13;;;3.28;;
78183;SDS011;67442;44.570;18.610;2023-08-06T02:53:35;4.75;;;3.00;;
78183;SDS011;67442;44.570;18.610;2023-08-06T02:56:02;5.93;;;3.28;;
78183;SDS011;67442;44.570;18.610;2023-08-06T02:58:30;4.75;;;3.08;;
78183;SDS011;67442;44.570;18.610;2023-08-06T03:01:02;6.82;;;3.20;;
78183;SDS011;67442;44.570;18.610;2023-08-06T03:03:33;5.75;;;3.22;;
78183;SDS011;67442;44.570;18.610;2023-08-06T03:06:04;6.45;;;2.85;;
78183;SDS011;67442;44.570;18.610;2023-08-06T03:08:31;8.07;;;3.55;;
78183;SDS011;67442;44.570;18.610;2023-08-06T03:10:58;6.00;;;3.22;;
78183;SDS011;67442;44.570;18.610;2023-08-06T03:13:26;4.97;;;2.83;;
78183;SDS011;67442;44.570;18.610;2023-08-06T03:15:54;5.22;;;3.20;;
78183;SDS011;67442;44.570;18.610;2023-08-06T03:18:25;5.60;;;2.97;;
78183;SDS011;67442;44.570;18.610;2023-08-06T03:20:52;6.53;;;3.00;;
78183;SDS011;67442;44.570;18.610;2023-08-06T03:23:19;6.95;;;3.25;;
78183;SDS011;67442;44.570;18.610;2023-08-06T03:25:46;5.82;;;3.17;;
78183;SDS011;67442;44.570;18.610;2023-08-06T03:28:12;6.07;;;3.10;;
78183;SDS011;67442;44.570;18.610;2023-08-06T03:30:40;7.68;;;3.75;;
78183;SDS011;67442;44.570;18.610;2023-08-06T03:33:07;5.28;;;3.08;;
78183;SDS011;67442;44.570;18.610;2023-08-06T03:35:38;6.10;;;3.13;;
78183;SDS011;67442;44.570;18.610;2023-08-06T03:38:05;6.30;;;2.58;;
78183;SDS011;67442;44.570;18.610;2023-08-06T03:40:34;6.88;;;2.83;;
78183;SDS011;67442;44.570;18.610;2023-08-06T03:43:01;5.50;;;2.90;;
78183;SDS011;67442;44.570;18.610;2023-08-06T03:45:28;5.70;;;2.95;;
78183;SDS011;67442;44.570;18.610;2023-08-06T03:47:55;5.90;;;3.20;;
78183;SDS011;67442;44.570;18.610;2023-08-06T03:50:23;4.55;;;2.95;;
78183;SDS011;67442;44.570;18.610;2023-08-06T03:52:50;5.18;;;2.72;;
78183;SDS011;67442;44.570;18.610;2023-08-06T03:55:17;6.35;;;2.97;;
78183;SDS011;67442;44.570;18.610;2023-08-06T03:57:44;6.53;;;3.20;;
78183;SDS011;67442;44.570;18.610;2023-08-06T04:00:11;6.05;;;2.85;;
78183;SDS011;67442;44.570;18.610;2023-08-06T04:02:39;5.00;;;2.88;;
78183;SDS011;67442;44.570;18.610;2023-08-06T04:05:07;5.75;;;2.88;;
78183;SDS011;67442;44.570;18.610;2023-08-06T04:07:35;5.05;;;2.97;;
78183;SDS011;67442;44.570;18.610;2023-08-06T04:10:03;5.80;;;2.85;;
78183;SDS011;67442;44.570;18.610;2023-08-06T04:12:31;6.18;;;2.63;;
78183;SDS011;67442;44.570;18.610;2023-08-06T04:15:01;4.60;;;3.03;;
78183;SDS011;67442;44.570;18.610;2023-08-06T04:17:29;6.93;;;2.80;;
78183;SDS011;67442;44.570;18.610;2023-08-06T04:19:56;5.70;;;2.95;;
78183;SDS011;67442;44.570;18.610;2023-08-06T04:22:24;5.25;;;2.80;;
78183;SDS011;67442;44.570;18.610;2023-08-06T04:24:51;5.18;;;2.80;;
78183;SDS011;67442;44.570;18.610;2023-08-06T04:27:17;4.90;;;2.50;;
78183;SDS011;67442;44.570;18.610;2023-08-06T04:29:48;5.43;;;3.00;;
78183;SDS011;67442;44.570;18.610;2023-08-06T04:32:19;4.55;;;2.50;;
78183;SDS011;67442;44.570;18.610;2023-08-06T04:34:46;5.10;;;2.85;;
78183;SDS011;67442;44.570;18.610;2023-08-06T04:37:13;6.30;;;2.95;;
78183;SDS011;67442;44.570;18.610;2023-08-06T04:39:44;5.85;;;2.63;;
78183;SDS011;67442;44.570;18.610;2023-08-06T04:42:16;5.75;;;3.05;;
78183;SDS011;67442;44.570;18.610;2023-08-06T04:44:43;6.28;;;2.60;;
78183;SDS011;67442;44.570;18.610;2023-08-06T04:47:10;4.43;;;2.55;;
78183;SDS011;67442;44.570;18.610;2023-08-06T04:49:36;4.75;;;2.60;;
78183;SDS011;67442;44.570;18.610;2023-08-06T04:52:05;3.53;;;2.50;;
78183;SDS011;67442;44.570;18.610;2023-08-06T04:54:33;5.28;;;2.97;;
78183;SDS011;67442;44.570;18.610;2023-08-06T04:57:01;5.97;;;2.63;;
78183;SDS011;67442;44.570;18.610;2023-08-06T04:59:29;6.05;;;2.85;;
78183;SDS011;67442;44.570;18.610;2023-08-06T05:01:57;4.30;;;2.58;;
78183;SDS011;67442;44.570;18.610;2023-08-06T05:04:24;6.53;;;2.70;;
78183;SDS011;67442;44.570;18.610;2023-08-06T05:06:51;4.88;;;2.67;;
78183;SDS011;67442;44.570;18.610;2023-08-06T05:09:19;4.45;;;2.40;;
78183;SDS011;67442;44.570;18.610;2023-08-06T05:11:48;5.43;;;2.78;;
78183;SDS011;67442;44.570;18.610;2023-08-06T05:14:15;4.07;;;2.40;;
78183;SDS011;67442;44.570;18.610;2023-08-06T05:16:43;3.97;;;2.67;;
78183;SDS011;67442;44.570;18.610;2023-08-06T05:19:10;4.07;;;2.55;;
78183;SDS011;67442;44.570;18.610;2023-08-06T05:21:41;4.43;;;2.70;;
78183;SDS011;67442;44.570;18.610;2023-08-06T05:24:08;4.63;;;2.50;;
78183;SDS011;67442;44.570;18.610;2023-08-06T05:26:35;4.93;;;2.55;;
78183;SDS011;67442;44.570;18.610;2023-08-06T05:29:02;5.15;;;2.65;;
78183;SDS011;67442;44.570;18.610;2023-08-06T05:31:29;4.15;;;2.60;;
78183;SDS011;67442;44.570;18.610;2023-08-06T05:33:56;7.80;;;2.65;;
78183;SDS011;67442;44.570;18.610;2023-08-06T05:36:27;4.70;;;2.40;;
78183;SDS011;67442;44.570;18.610;2023-08-06T05:38:54;5.57;;;2.40;;
78183;SDS011;67442;44.570;18.610;2023-08-06T05:41:21;5.68;;;2.58;;
78183;SDS011;67442;44.570;18.610;2023-08-06T05:43:48;4.00;;;2.47;;
78183;SDS011;67442;44.570;18.610;2023-08-06T05:46:19;4.80;;;2.70;;
78183;SDS011;67442;44.570;18.610;2023-08-06T05:48:47;4.82;;;2.50;;
78183;SDS011;67442;44.570;18.610;2023-08-06T05:51:16;3.83;;;2.50;;
78183;SDS011;67442;44.570;18.610;2023-08-06T05:53:44;5.70;;;2.97;;
78183;SDS011;67442;44.570;18.610;2023-08-06T05:56:12;4.70;;;2.67;;
78183;SDS011;67442;44.570;18.610;2023-08-06T05:58:40;3.55;;;2.28;;
78183;SDS011;67442;44.570;18.610;2023-08-06T06:01:07;4.88;;;2.45;;
78183;SDS011;67442;44.570;18.610;2023-08-06T06:03:35;4.22;;;2.33;;
78183;SDS011;67442;44.570;18.610;2023-08-06T06:06:06;4.30;;;2.30;;
78183;SDS011;67442;44.570;18.610;2023-08-06T06:08:37;5.55;;;2.13;;
78183;SDS011;67442;44.570;18.610;2023-08-06T06:11:05;4.00;;;2.33;;
78183;SDS011;67442;44.570;18.610;2023-08-06T06:13:32;4.80;;;2.25;;
78183;SDS011;67442;44.570;18.610;2023-08-06T06:15:59;3.47;;;2.55;;
78183;SDS011;67442;44.570;18.610;2023-08-06T06:18:26;3.50;;;2.13;;
78183;SDS011;67442;44.570;18.610;2023-08-06T06:20:57;3.40;;;2.20;;
78183;SDS011;67442;44.570;18.610;2023-08-06T06:23:24;4.53;;;2.45;;
78183;SDS011;67442;44.570;18.610;2023-08-06T06:25:51;5.85;;;2.97;;
78183;SDS011;67442;44.570;18.610;2023-08-06T06:28:19;3.13;;;2.30;;
78183;SDS011;67442;44.570;18.610;2023-08-06T06:30:45;3.75;;;2.10;;
78183;SDS011;67442;44.570;18.610;2023-08-06T06:33:13;3.85;;;2.30;;
78183;SDS011;67442;44.570;18.610;2023-08-06T06:35:45;5.78;;;2.08;;
78183;SDS011;67442;44.570;18.610;2023-08-06T06:38:12;3.92;;;2.25;;
78183;SDS011;67442;44.570;18.610;2023-08-06T06:40:39;3.85;;;2.25;;
78183;SDS011;67442;44.570;18.610;2023-08-06T06:43:10;5.40;;;2.30;;
78183;SDS011;67442;44.570;18.610;2023-08-06T06:45:37;2.95;;;2.13;;
78183;SDS011;67442;44.570;18.610;2023-08-06T06:48:05;4.78;;;2.38;;
78183;SDS011;67442;44.570;18.610;2023-08-06T06:50:32;3.53;;;2.22;;
78183;SDS011;67442;44.570;18.610;2023-08-06T06:53:01;7.63;;;2.38;;
78183;SDS011;67442;44.570;18.610;2023-08-06T06:55:28;4.72;;;1.80;;
78183;SDS011;67442;44.570;18.610;2023-08-06T06:57:59;3.33;;;2.30;;
78183;SDS011;67442;44.570;18.610;2023-08-06T07:00:26;6.45;;;2.33;;
78183;SDS011;67442;44.570;18.610;2023-08-06T07:02:57;4.65;;;1.95;;
78183;SDS011;67442;44.570;18.610;2023-08-06T07:05:24;6.95;;;2.13;;
78183;SDS011;67442;44.570;18.610;2023-08-06T07:07:52;4.05;;;2.33;;
78183;SDS011;67442;44.570;18.610;2023-08-06T07:10:23;6.13;;;2.28;;
78183;SDS011;67442;44.570;18.610;2023-08-06T07:12:54;7.07;;;2.20;;
78183;SDS011;67442;44.570;18.610;2023-08-06T07:15:21;7.82;;;2.50;;
78183;SDS011;67442;44.570;18.610;2023-08-06T07:17:48;3.40;;;2.33;;
78183;SDS011;67442;44.570;18.610;2023-08-06T07:20:15;3.42;;;1.98;;
78183;SDS011;67442;44.570;18.610;2023-08-06T07:22:43;3.35;;;2.00;;
78183;SDS011;67442;44.570;18.610;2023-08-06T07:25:10;3.30;;;1.83;;
78183;SDS011;67442;44.570;18.610;2023-08-06T07:27:38;4.45;;;2.33;;
78183;SDS011;67442;44.570;18.610;2023-08-06T07:30:05;3.08;;;1.98;;
78183;SDS011;67442;44.570;18.610;2023-08-06T07:32:34;5.55;;;2.20;;
78183;SDS011;67442;44.570;18.610;2023-08-06T07:35:01;4.60;;;2.00;;
78183;SDS011;67442;44.570;18.610;2023-08-06T07:37:29;3.67;;;1.88;;
78183;SDS011;67442;44.570;18.610;2023-08-06T07:39:56;2.38;;;1.90;;
78183;SDS011;67442;44.570;18.610;2023-08-06T07:42:22;4.05;;;1.60;;
78183;SDS011;67442;44.570;18.610;2023-08-06T07:44:57;2.20;;;1.55;;
78183;SDS011;67442;44.570;18.610;2023-08-06T07:47:28;2.40;;;1.60;;
78183;SDS011;67442;44.570;18.610;2023-08-06T07:49:56;4.90;;;1.90;;
78183;SDS011;67442;44.570;18.610;2023-08-06T07:52:23;4.18;;;2.10;;
78183;SDS011;67442;44.570;18.610;2023-08-06T07:54:49;2.03;;;1.70;;
78183;SDS011;67442;44.570;18.610;2023-08-06T07:57:17;4.18;;;1.65;;
78183;SDS011;67442;44.570;18.610;2023-08-06T07:59:44;4.10;;;1.95;;
78183;SDS011;67442;44.570;18.610;2023-08-06T08:02:11;2.55;;;1.67;;
78183;SDS011;67442;44.570;18.610;2023-08-06T08:04:39;4.47;;;1.88;;
78183;SDS011;67442;44.570;18.610;2023-08-06T08:07:10;2.20;;;1.60;;
78183;SDS011;67442;44.570;18.610;2023-08-06T08:09:37;3.83;;;1.80;;
78183;SDS011;67442;44.570;18.610;2023-08-06T08:12:05;4.75;;;1.67;;
78183;SDS011;67442;44.570;18.610;2023-08-06T08:14:32;1.60;;;1.35;;
78183;SDS011;67442;44.570;18.610;2023-08-06T08:17:05;1.92;;;1.33;;
78183;SDS011;67442;44.570;18.610;2023-08-06T08:19:33;2.35;;;1.35;;
78183;SDS011;67442;44.570;18.610;2023-08-06T08:22:00;3.80;;;1.50;;
78183;SDS011;67442;44.570;18.610;2023-08-06T08:24:27;2.97;;;1.30;;
78183;SDS011;67442;44.570;18.610;2023-08-06T08:26:58;1.92;;;1.30;;
78183;SDS011;67442;44.570;18.610;2023-08-06T08:29:26;4.07;;;1.48;;
78183;SDS011;67442;44.570;18.610;2023-08-06T08:31:57;3.75;;;1.30;;
78183;SDS011;67442;44.570;18.610;2023-08-06T08:34:24;4.45;;;1.38;;
78183;SDS011;67442;44.570;18.610;2023-08-06T08:36:55;1.73;;;1.35;;
78183;SDS011;67442;44.570;18.610;2023-08-06T08:39:24;2.15;;;1.40;;
78183;SDS011;67442;44.570;18.610;2023-08-06T08:41:51;1.90;;;1.45;;
78183;SDS011;67442;44.570;18.610;2023-08-06T08:44:18;2.22;;;1.50;;
78183;SDS011;67442;44.570;18.610;2023-08-06T08:46:46;1.63;;;1.27;;
78183;SDS011;67442;44.570;18.610;2023-08-06T08:49:17;1.50;;;1.30;;
78183;SDS011;67442;44.570;18.610;2023-08-06T08:51:46;4.68;;;1.65;;
78183;SDS011;67442;44.570;18.610;2023-08-06T08:54:15;1.58;;;1.20;;
78183;SDS011;67442;44.570;18.610;2023-08-06T08:56:43;2.95;;;1.50;;
78183;SDS011;67442;44.570;18.610;2023-08-06T08:59:11;2.55;;;1.20;;
78183;SDS011;67442;44.570;18.610;2023-08-06T09:01:38;1.67;;;1.45;;
78183;SDS011;67442;44.570;18.610;2023-08-06T09:04:09;1.70;;;1.20;;
78183;SDS011;67442;44.570;18.610;2023-08-06T09:06:38;1.45;;;1.35;;
78183;SDS011;67442;44.570;18.610;2023-08-06T09:09:12;2.78;;;1.33;;
78183;SDS011;67442;44.570;18.610;2023-08-06T09:11:50;2.38;;;1.52;;
78183;SDS011;67442;44.570;18.610;2023-08-06T09:14:18;1.55;;;1.08;;
78183;SDS011;67442;44.570;18.610;2023-08-06T09:16:46;3.03;;;1.45;;
78183;SDS011;67442;44.570;18.610;2023-08-06T09:19:13;0.95;;;0.95;;
78183;SDS011;67442;44.570;18.610;2023-08-06T09:21:43;1.10;;;1.00;;
78183;SDS011;67442;44.570;18.610;2023-08-06T09:24:14;1.63;;;1.10;;
78183;SDS011;67442;44.570;18.610;2023-08-06T09:26:41;2.00;;;1.17;;
78183;SDS011;67442;44.570;18.610;2023-08-06T09:29:10;1.48;;;1.05;;
78183;SDS011;67442;44.570;18.610;2023-08-06T09:34:18;1.70;;;1.13;;
78183;SDS011;67442;44.570;18.610;2023-08-06T09:36:55;0.93;;;0.88;;
78183;SDS011;67442;44.570;18.610;2023-08-06T09:42:26;1.35;;;1.20;;
78183;SDS011;67442;44.570;18.610;2023-08-06T09:45:05;2.33;;;1.20;;
78183;SDS011;67442;44.570;18.610;2023-08-06T09:47:34;2.03;;;1.00;;
78183;SDS011;67442;44.570;18.610;2023-08-06T09:50:02;1.48;;;0.90;;
78183;SDS011;67442;44.570;18.610;2023-08-06T09:52:33;1.00;;;0.90;;
78183;SDS011;67442;44.570;18.610;2023-08-06T09:55:01;1.50;;;1.15;;
78183;SDS011;67442;44.570;18.610;2023-08-06T09:57:29;6.35;;;1.27;;
78183;SDS011;67442;44.570;18.610;2023-08-06T09:59:57;5.55;;;1.25;;
78183;SDS011;67442;44.570;18.610;2023-08-06T10:02:28;2.17;;;1.25;;
78183;SDS011;67442;44.570;18.610;2023-08-06T10:04:57;2.25;;;1.27;;
78183;SDS011;67442;44.570;18.610;2023-08-06T10:07:24;3.88;;;1.60;;
78183;SDS011;67442;44.570;18.610;2023-08-06T10:09:53;1.63;;;1.20;;
78183;SDS011;67442;44.570;18.610;2023-08-06T10:12:21;5.95;;;1.30;;
78183;SDS011;67442;44.570;18.610;2023-08-06T10:14:50;2.05;;;1.00;;
78183;SDS011;67442;44.570;18.610;2023-08-06T10:17:21;3.85;;;1.00;;
78183;SDS011;67442;44.570;18.610;2023-08-06T10:19:53;3.20;;;1.00;;
78183;SDS011;67442;44.570;18.610;2023-08-06T10:22:24;1.73;;;1.00;;
78183;SDS011;67442;44.570;18.610;2023-08-06T10:24:53;3.65;;;1.20;;
78183;SDS011;67442;44.570;18.610;2023-08-06T10:27:34;7.18;;;1.20;;
78183;SDS011;67442;44.570;18.610;2023-08-06T10:32:53;5.70;;;3.15;;
78183;SDS011;67442;44.570;18.610;2023-08-06T10:38:03;9.60;;;2.00;;
78183;SDS011;67442;44.570;18.610;2023-08-06T10:46:02;7.68;;;1.80;;
78183;SDS011;67442;44.570;18.610;2023-08-06T10:48:39;5.25;;;1.48;;
78183;SDS011;67442;44.570;18.610;2023-08-06T10:51:08;4.13;;;1.33;;
78183;SDS011;67442;44.570;18.610;2023-08-06T10:53:36;3.65;;;1.30;;
78183;SDS011;67442;44.570;18.610;2023-08-06T10:56:17;5.38;;;1.85;;
78183;SDS011;67442;44.570;18.610;2023-08-06T10:58:51;4.07;;;1.40;;
78183;SDS011;67442;44.570;18.610;2023-08-06T11:01:20;6.50;;;1.55;;
78183;SDS011;67442;44.570;18.610;2023-08-06T11:03:48;7.72;;;1.80;;
78183;SDS011;67442;44.570;18.610;2023-08-06T11:06:17;5.32;;;1.70;;
78183;SDS011;67442;44.570;18.610;2023-08-06T11:08:54;3.60;;;1.48;;
78183;SDS011;67442;44.570;18.610;2023-08-06T11:11:22;3.45;;;1.30;;
78183;SDS011;67442;44.570;18.610;2023-08-06T11:13:49;3.35;;;1.45;;
78183;SDS011;67442;44.570;18.610;2023-08-06T11:16:20;4.68;;;1.42;;
78183;SDS011;67442;44.570;18.610;2023-08-06T11:18:52;2.08;;;1.10;;
78183;SDS011;67442;44.570;18.610;2023-08-06T11:21:24;5.97;;;1.50;;
78183;SDS011;67442;44.570;18.610;2023-08-06T11:23:52;4.43;;;1.60;;
78183;SDS011;67442;44.570;18.610;2023-08-06T11:26:19;3.40;;;1.58;;
78183;SDS011;67442;44.570;18.610;2023-08-06T11:28:49;4.97;;;1.52;;
78183;SDS011;67442;44.570;18.610;2023-08-06T11:31:22;5.20;;;1.90;;
78183;SDS011;67442;44.570;18.610;2023-08-06T11:33:50;7.05;;;1.50;;
78183;SDS011;67442;44.570;18.610;2023-08-06T11:36:29;6.13;;;1.50;;
78183;SDS011;67442;44.570;18.610;2023-08-06T11:39:00;6.45;;;1.73;;
78183;SDS011;67442;44.570;18.610;2023-08-06T11:41:28;1.83;;;1.08;;
78183;SDS011;67442;44.570;18.610;2023-08-06T11:43:55;2.70;;;1.35;;
78183;SDS011;67442;44.570;18.610;2023-08-06T11:46:22;2.00;;;1.33;;
78183;SDS011;67442;44.570;18.610;2023-08-06T11:48:52;5.53;;;1.38;;
78183;SDS011;67442;44.570;18.610;2023-08-06T11:51:26;2.45;;;1.30;;
78183;SDS011;67442;44.570;18.610;2023-08-06T11:54:14;2.95;;;1.40;;
78183;SDS011;67442;44.570;18.610;2023-08-06T11:56:42;3.08;;;1.25;;
78183;SDS011;67442;44.570;18.610;2023-08-06T11:59:09;2.13;;;1.25;;
78183;SDS011;67442;44.570;18.610;2023-08-06T12:01:37;5.68;;;1.50;;
78183;SDS011;67442;44.570;18.610;2023-08-06T12:04:04;5.53;;;1.30;;
78183;SDS011;67442;44.570;18.610;2023-08-06T12:06:41;3.70;;;1.13;;
78183;SDS011;67442;44.570;18.610;2023-08-06T12:09:09;2.38;;;1.27;;
78183;SDS011;67442;44.570;18.610;2023-08-06T12:11:40;4.07;;;1.33;;
78183;SDS011;67442;44.570;18.610;2023-08-06T12:14:11;4.60;;;1.98;;
78183;SDS011;67442;44.570;18.610;2023-08-06T12:16:42;3.35;;;1.38;;
78183;SDS011;67442;44.570;18.610;2023-08-06T12:19:09;3.25;;;1.27;;
78183;SDS011;67442;44.570;18.610;2023-08-06T12:21:36;2.42;;;1.30;;
78183;SDS011;67442;44.570;18.610;2023-08-06T12:24:04;2.70;;;1.50;;
78183;SDS011;67442;44.570;18.610;2023-08-06T12:26:33;3.47;;;1.40;;
78183;SDS011;67442;44.570;18.610;2023-08-06T12:29:00;1.63;;;1.02;;
78183;SDS011;67442;44.570;18.610;2023-08-06T12:31:27;6.93;;;1.70;;
78183;SDS011;67442;44.570;18.610;2023-08-06T12:33:58;6.38;;;1.60;;
78183;SDS011;67442;44.570;18.610;2023-08-06T12:36:25;5.05;;;1.50;;
78183;SDS011;67442;44.570;18.610;2023-08-06T12:38:53;3.10;;;1.25;;
78183;SDS011;67442;44.570;18.610;2023-08-06T12:41:20;4.03;;;1.52;;
78183;SDS011;67442;44.570;18.610;2023-08-06T12:43:47;4.03;;;1.45;;
78183;SDS011;67442;44.570;18.610;2023-08-06T12:46:18;3.63;;;1.60;;
78183;SDS011;67442;44.570;18.610;2023-08-06T12:48:46;7.60;;;1.50;;
78183;SDS011;67442;44.570;18.610;2023-08-06T12:51:14;6.80;;;1.45;;
78183;SDS011;67442;44.570;18.610;2023-08-06T12:53:41;3.55;;;1.63;;
78183;SDS011;67442;44.570;18.610;2023-08-06T12:56:08;5.32;;;1.70;;
78183;SDS011;67442;44.570;18.610;2023-08-06T12:58:35;3.40;;;1.45;;
78183;SDS011;67442;44.570;18.610;2023-08-06T13:01:05;2.92;;;1.20;;
78183;SDS011;67442;44.570;18.610;2023-08-06T13:03:35;7.47;;;1.58;;
78183;SDS011;67442;44.570;18.610;2023-08-06T13:06:03;3.13;;;1.25;;
78183;SDS011;67442;44.570;18.610;2023-08-06T13:08:30;4.90;;;1.70;;
78183;SDS011;67442;44.570;18.610;2023-08-06T13:10:57;3.35;;;1.25;;
78183;SDS011;67442;44.570;18.610;2023-08-06T13:13:28;8.00;;;1.58;;
78183;SDS011;67442;44.570;18.610;2023-08-06T13:15:55;6.03;;;1.60;;
78183;SDS011;67442;44.570;18.610;2023-08-06T13:18:23;11.70;;;2.00;;
78183;SDS011;67442;44.570;18.610;2023-08-06T13:20:52;7.88;;;2.08;;
78183;SDS011;67442;44.570;18.610;2023-08-06T13:23:20;10.05;;;2.05;;
78183;SDS011;67442;44.570;18.610;2023-08-06T13:25:51;7.70;;;1.73;;
78183;SDS011;67442;44.570;18.610;2023-08-06T13:28:22;13.65;;;1.88;;
78183;SDS011;67442;44.570;18.610;2023-08-06T13:30:51;8.30;;;2.05;;
78183;SDS011;67442;44.570;18.610;2023-08-06T13:33:19;5.38;;;1.55;;
78183;SDS011;67442;44.570;18.610;2023-08-06T13:35:46;6.65;;;2.05;;
78183;SDS011;67442;44.570;18.610;2023-08-06T13:38:14;9.35;;;1.90;;
78183;SDS011;67442;44.570;18.610;2023-08-06T13:40:42;8.80;;;2.00;;
78183;SDS011;67442;44.570;18.610;2023-08-06T13:43:10;9.52;;;2.05;;
78183;SDS011;67442;44.570;18.610;2023-08-06T13:45:37;9.27;;;2.22;;
78183;SDS011;67442;44.570;18.610;2023-08-06T13:48:04;7.78;;;2.05;;
78183;SDS011;67442;44.570;18.610;2023-08-06T13:50:32;9.27;;;1.88;;
78183;SDS011;67442;44.570;18.610;2023-08-06T13:52:59;7.28;;;1.70;;
78183;SDS011;67442;44.570;18.610;2023-08-06T13:55:27;10.20;;;2.30;;
78183;SDS011;67442;44.570;18.610;2023-08-06T13:57:58;9.85;;;2.08;;
78183;SDS011;67442;44.570;18.610;2023-08-06T14:00:25;7.30;;;2.22;;
78183;SDS011;67442;44.570;18.610;2023-08-06T14:02:52;4.95;;;1.63;;
78183;SDS011;67442;44.570;18.610;2023-08-06T14:05:19;16.65;;;2.40;;
78183;SDS011;67442;44.570;18.610;2023-08-06T14:07:47;16.30;;;2.10;;
78183;SDS011;67442;44.570;18.610;2023-08-06T14:10:14;12.23;;;2.13;;
78183;SDS011;67442;44.570;18.610;2023-08-06T14:12:42;5.90;;;1.83;;
78183;SDS011;67442;44.570;18.610;2023-08-06T14:15:10;4.80;;;1.80;;
78183;SDS011;67442;44.570;18.610;2023-08-06T14:17:36;8.57;;;2.05;;
78183;SDS011;67442;44.570;18.610;2023-08-06T14:20:03;5.97;;;1.65;;
78183;SDS011;67442;44.570;18.610;2023-08-06T14:22:34;14.07;;;2.10;;
78183;SDS011;67442;44.570;18.610;2023-08-06T14:25:05;9.68;;;1.90;;
78183;SDS011;67442;44.570;18.610;2023-08-06T14:27:35;8.05;;;1.98;;
78183;SDS011;67442;44.570;18.610;2023-08-06T14:30:07;8.70;;;1.73;;
78183;SDS011;67442;44.570;18.610;2023-08-06T14:32:50;5.47;;;1.50;;
78183;SDS011;67442;44.570;18.610;2023-08-06T14:35:17;3.60;;;1.08;;
78183;SDS011;67442;44.570;18.610;2023-08-06T14:37:44;1.40;;;1.00;;
78183;SDS011;67442;44.570;18.610;2023-08-06T14:40:11;1.92;;;1.05;;
78183;SDS011;67442;44.570;18.610;2023-08-06T14:42:37;2.45;;;1.00;;
78183;SDS011;67442;44.570;18.610;2023-08-06T14:45:05;1.90;;;0.95;;
78183;SDS011;67442;44.570;18.610;2023-08-06T14:47:34;3.92;;;0.88;;
78183;SDS011;67442;44.570;18.610;2023-08-06T14:50:05;3.85;;;0.80;;
78183;SDS011;67442;44.570;18.610;2023-08-06T14:52:32;1.15;;;0.80;;
78183;SDS011;67442;44.570;18.610;2023-08-06T14:55:00;2.45;;;0.98;;
78183;SDS011;67442;44.570;18.610;2023-08-06T14:57:29;1.40;;;0.75;;
78183;SDS011;67442;44.570;18.610;2023-08-06T15:00:00;1.75;;;0.90;;
78183;SDS011;67442;44.570;18.610;2023-08-06T15:02:31;2.15;;;0.70;;
78183;SDS011;67442;44.570;18.610;2023-08-06T15:04:58;1.17;;;0.70;;
78183;SDS011;67442;44.570;18.610;2023-08-06T15:07:25;1.80;;;0.60;;